Time;durP1;ratioP1;P1;durP2;ratioP2;P2;SDS_P1;SDS_P2;PMS_P1;PMS_P2;Temp;Humidity;BMP_temperature;BMP_pressure;BME280_temperature;BME280_humidity;BME280_pressure;Samples;Min_cycle;Max_cycle;Signal;HPM_P1;HPM_P2
2021/06/15 00:00:24;;;;;;;7.85;4.65;;;20.10;99.90;;;;;;6214490;23;20000;-81
2021/06/15 00:02:50;;;;;;;6.57;4.95;;;19.80;99.90;;;;;;6215588;23;20075;-81
2021/06/15 00:05:17;;;;;;;6.93;4.50;;;20.00;99.90;;;;;;6215914;23;20470;-81
2021/06/15 00:07:44;;;;;;;4.75;4.35;;;20.00;99.90;;;;;;6216012;23;20067;-81
2021/06/15 00:10:14;;;;;;;7.28;4.13;;;19.90;99.90;;;;;;6215857;23;20036;-81
2021/06/15 00:12:40;;;;;;;7.15;3.70;;;19.60;99.90;;;;;;6214463;23;20339;-81
2021/06/15 00:15:08;;;;;;;7.35;4.85;;;19.60;99.90;;;;;;6215866;23;19992;-81
2021/06/15 00:17:35;;;;;;;5.18;4.60;;;19.70;99.90;;;;;;6215314;23;20334;-81
2021/06/15 00:20:01;;;;;;;6.15;4.13;;;19.70;99.90;;;;;;6215578;23;20331;-81
2021/06/15 00:22:26;;;;;;;7.10;4.10;;;19.60;99.90;;;;;;6215678;23;19997;-81
2021/06/15 00:24:52;;;;;;;7.63;4.40;;;19.50;99.90;;;;;;6215675;23;20004;-81
2021/06/15 00:27:18;;;;;;;5.95;4.75;;;19.40;99.90;;;;;;6213978;23;20004;-81
2021/06/15 00:29:44;;;;;;;8.65;5.65;;;19.30;99.90;;;;;;6215494;23;19996;-81
2021/06/15 00:32:09;;;;;;;4.97;4.35;;;19.50;99.90;;;;;;6215351;23;20000;-81
2021/06/15 00:34:35;;;;;;;5.53;4.70;;;19.40;99.90;;;;;;6215535;23;19997;-81
2021/06/15 00:37:01;;;;;;;6.65;4.55;;;19.20;99.90;;;;;;6215515;23;20481;-81
2021/06/15 00:39:27;;;;;;;7.40;4.38;;;19.20;99.90;;;;;;6213832;23;20011;-81
2021/06/15 00:41:53;;;;;;;9.05;5.00;;;19.20;99.90;;;;;;6215671;23;20386;-81
2021/06/15 00:44:18;;;;;;;5.60;5.10;;;19.20;99.90;;;;;;6215494;23;20007;-81
2021/06/15 00:46:44;;;;;;;11.02;5.22;;;19.10;99.90;;;;;;6215008;23;20004;-81
2021/06/15 00:49:14;;;;;;;5.95;5.40;;;19.00;99.90;;;;;;6215058;23;20120;-81
2021/06/15 00:51:40;;;;;;;10.57;5.18;;;19.20;99.90;;;;;;6214946;23;20008;-81
2021/06/15 00:54:07;;;;;;;7.57;5.00;;;19.40;99.90;;;;;;6215493;23;20004;-81
2021/06/15 00:56:32;;;;;;;5.35;4.85;;;19.20;99.90;;;;;;6215203;23;20076;-80
2021/06/15 00:58:58;;;;;;;11.00;5.60;;;19.30;99.90;;;;;;6215570;23;20402;-81
2021/06/15 01:01:24;;;;;;;12.30;5.70;;;19.50;99.90;;;;;;6214730;23;20079;-81
2021/06/15 01:03:50;;;;;;;7.00;4.53;;;19.50;99.90;;;;;;6215459;23;20074;-81
2021/06/15 01:06:27;;;;;;;5.10;4.13;;;19.30;99.90;;;;;;6215133;23;20083;-81
2021/06/15 01:09:01;;;;;;;11.20;4.82;;;19.20;99.90;;;;;;6214937;23;20004;-81
2021/06/15 01:11:39;;;;;;;9.02;5.57;;;18.90;99.90;;;;;;6214897;23;20078;-81
2021/06/15 01:14:17;;;;;;;8.57;4.45;;;18.80;99.90;;;;;;6215080;23;20366;-81
2021/06/15 01:17:18;;;;;;;7.57;4.93;;;18.90;99.90;;;;;;6214544;23;20016;-81
2021/06/15 01:20:02;;;;;;;6.63;4.57;;;19.00;99.90;;;;;;6181156;23;20035;-80
2021/06/15 01:22:46;;;;;;;8.20;4.85;;;18.80;99.90;;;;;;6215102;23;20400;-81
2021/06/15 01:25:31;;;;;;;6.07;5.47;;;18.70;99.90;;;;;;6215033;23;20126;-81
2021/06/15 01:28:08;;;;;;;5.97;4.78;;;18.70;99.90;;;;;;6214949;23;20438;-81
2021/06/15 01:30:51;;;;;;;4.95;4.43;;;18.70;99.90;;;;;;6212788;23;20009;-81
2021/06/15 01:33:20;;;;;;;6.53;5.18;;;18.60;99.90;;;;;;6215023;23;20127;-81
2021/06/15 01:35:47;;;;;;;8.30;4.35;;;18.60;99.90;;;;;;6214411;23;20440;-81
2021/06/15 01:38:15;;;;;;;9.88;4.60;;;18.70;99.90;;;;;;6214833;23;20478;-81
2021/06/15 01:40:46;;;;;;;8.57;4.93;;;18.70;99.90;;;;;;6214696;23;20000;-81
2021/06/15 01:43:31;;;;;;;11.10;5.30;;;18.40;99.90;;;;;;6214813;23;20001;-81
2021/06/15 01:45:59;;;;;;;10.23;5.13;;;18.70;99.90;;;;;;6214380;23;20054;-81
2021/06/15 01:48:34;;;;;;;15.93;5.57;;;18.80;99.90;;;;;;6215066;23;20058;-81
2021/06/15 01:51:02;;;;;;;7.05;5.10;;;18.90;99.90;;;;;;6214641;23;20036;-81
2021/06/15 01:53:32;;;;;;;10.13;4.90;;;18.80;99.90;;;;;;6214590;23;20034;-81
2021/06/15 01:56:03;;;;;;;6.00;4.75;;;18.70;99.90;;;;;;6214650;23;20320;-81
2021/06/15 01:58:30;;;;;;;9.68;5.20;;;18.70;99.90;;;;;;6214396;23;20427;-81
2021/06/15 02:00:57;;;;;;;7.88;4.75;;;18.70;99.90;;;;;;6212854;23;20008;-81
2021/06/15 02:03:24;;;;;;;6.03;5.07;;;18.60;99.90;;;;;;6214762;23;20000;-81
2021/06/15 02:05:55;;;;;;;5.45;5.05;;;18.70;99.90;;;;;;6214666;23;19997;-80
2021/06/15 02:08:35;;;;;;;8.40;4.82;;;18.90;99.90;;;;;;6214798;23;20005;-81
2021/06/15 02:11:03;;;;;;;7.60;5.07;;;18.70;99.90;;;;;;6214529;23;20502;-81
2021/06/15 02:13:31;;;;;;;6.97;4.78;;;18.70;99.90;;;;;;6214133;23;19992;-80
2021/06/15 02:16:00;;;;;;;9.98;5.13;;;18.50;99.90;;;;;;6214664;23;19993;-81
2021/06/15 02:18:29;;;;;;;6.28;4.85;;;18.50;99.90;;;;;;6214833;23;19992;-81
2021/06/15 02:20:58;;;;;;;5.68;5.15;;;18.50;99.90;;;;;;6214514;23;20001;-81
2021/06/15 02:23:26;;;;;;;9.65;5.25;;;18.20;99.90;;;;;;6214655;23;20000;-81
2021/06/15 02:26:00;;;;;;;7.90;6.07;;;18.30;99.90;;;;;;6214443;23;20394;-81
2021/06/15 02:28:26;;;;;;;6.65;5.00;;;17.90;99.90;;;;;;6212773;23;20000;-81
2021/06/15 02:30:52;;;;;;;7.35;4.68;;;18.20;99.90;;;;;;6212767;23;20342;-81
2021/06/15 02:33:29;;;;;;;10.45;4.65;;;18.40;99.90;;;;;;6214744;23;20382;-81
2021/06/15 02:36:01;;;;;;;6.68;4.85;;;18.30;99.90;;;;;;6214575;23;19993;-81
2021/06/15 02:38:33;;;;;;;6.80;4.45;;;18.10;99.90;;;;;;6217308;23;19993;-81
2021/06/15 02:41:03;;;;;;;7.85;4.63;;;18.00;99.90;;;;;;6214361;23;20370;-81
2021/06/15 02:43:30;;;;;;;6.07;4.85;;;18.00;99.90;;;;;;6214165;23;20047;-81
2021/06/15 02:45:57;;;;;;;11.02;5.20;;;17.80;99.90;;;;;;6214388;23;20000;-81
2021/06/15 02:48:25;;;;;;;8.07;4.95;;;17.90;99.90;;;;;;6215378;23;20004;-81
2021/06/15 02:50:53;;;;;;;8.23;4.80;;;18.10;99.90;;;;;;6216249;23;20032;-81
2021/06/15 02:53:29;;;;;;;6.25;4.80;;;18.10;99.90;;;;;;6216328;23;20009;-81
2021/06/15 02:56:01;;;;;;;8.00;5.50;;;18.00;99.90;;;;;;6216463;23;19997;-81
2021/06/15 02:58:27;;;;;;;6.85;4.50;;;18.10;99.90;;;;;;6216334;23;20378;-81
2021/06/15 03:00:54;;;;;;;5.85;4.90;;;18.10;99.90;;;;;;6216230;23;20067;-81
2021/06/15 03:03:20;;;;;;;7.35;4.68;;;17.90;99.90;;;;;;6215994;23;20001;-81
2021/06/15 03:05:46;;;;;;;9.15;4.40;;;17.90;99.90;;;;;;6214978;23;20343;-81
2021/06/15 03:08:11;;;;;;;6.82;4.93;;;17.90;99.90;;;;;;6216129;23;20004;-81
2021/06/15 03:10:38;;;;;;;10.75;6.20;;;17.50;99.90;;;;;;6215774;23;20382;-81
2021/06/15 03:13:32;;;;;;;7.30;6.53;;;17.50;99.90;;;;;;6216124;23;20000;-81
2021/06/15 03:16:01;;;;;;;8.50;5.80;;;17.70;99.90;;;;;;6216136;23;20003;-81
2021/06/15 03:19:02;;;;;;;7.80;5.68;;;17.60;99.90;;;;;;6216361;23;20016;-81
2021/06/15 03:21:32;;;;;;;10.63;5.35;;;17.80;99.90;;;;;;6214533;23;20312;-81
2021/06/15 03:24:07;;;;;;;7.25;5.40;;;17.80;99.90;;;;;;6216521;23;20001;-81
2021/06/15 03:26:48;;;;;;;6.18;5.05;;;17.70;99.90;;;;;;6215445;23;20000;-81
2021/06/15 03:29:19;;;;;;;11.93;6.10;;;17.50;99.90;;;;;;6216072;23;20445;-81
2021/06/15 03:31:47;;;;;;;8.70;4.88;;;17.40;99.90;;;;;;6218230;23;19996;-81
2021/06/15 03:34:19;;;;;;;6.95;5.32;;;17.40;99.90;;;;;;6216201;23;20027;-81
2021/06/15 03:36:47;;;;;;;5.35;4.85;;;17.30;99.90;;;;;;6216298;23;19992;-81
2021/06/15 03:39:16;;;;;;;6.75;6.13;;;17.30;99.90;;;;;;6215912;23;20450;-81
2021/06/15 03:41:42;;;;;;;6.03;5.30;;;17.40;99.90;;;;;;6215843;23;20003;-81
2021/06/15 03:44:09;;;;;;;6.78;4.93;;;17.50;99.90;;;;;;6215729;23;20001;-81
2021/06/15 03:46:51;;;;;;;6.45;5.68;;;17.60;99.90;;;;;;6216177;23;19996;-81
2021/06/15 03:49:20;;;;;;;9.45;5.80;;;17.70;99.90;;;;;;6214006;23;20845;-81
2021/06/15 03:51:51;;;;;;;6.70;5.78;;;17.60;99.90;;;;;;6215653;23;20008;-81
2021/06/15 03:54:17;;;;;;;6.45;5.13;;;17.60;99.90;;;;;;6213888;23;20054;-81
2021/06/15 03:56:46;;;;;;;6.30;5.00;;;17.60;99.90;;;;;;6214120;23;20001;-81
2021/06/15 03:59:15;;;;;;;5.40;4.85;;;17.40;99.90;;;;;;6214131;23;20007;-81
2021/06/15 04:01:43;;;;;;;9.13;5.00;;;17.20;99.90;;;;;;6214495;23;20001;-81
2021/06/15 04:04:10;;;;;;;9.98;5.40;;;16.90;99.90;;;;;;6214302;23;20231;-81
2021/06/15 04:06:41;;;;;;;10.65;5.10;;;17.00;99.90;;;;;;6213776;23;20080;-81
2021/06/15 04:09:09;;;;;;;9.00;5.60;;;17.20;99.90;;;;;;6212711;23;20004;-81
2021/06/15 04:11:37;;;;;;;6.57;5.43;;;17.30;99.90;;;;;;6213921;23;19992;-81
2021/06/15 04:14:06;;;;;;;7.20;5.22;;;17.30;99.90;;;;;;6212456;23;20553;-81
2021/06/15 04:16:32;;;;;;;6.72;5.90;;;17.40;99.90;;;;;;6213570;23;19992;-81
2021/06/15 04:19:00;;;;;;;6.95;5.53;;;17.40;99.90;;;;;;6213646;23;20008;-81
2021/06/15 04:21:27;;;;;;;7.15;5.45;;;17.30;99.90;;;;;;6213458;23;20001;-81
2021/06/15 04:24:00;;;;;;;7.25;6.07;;;17.30;99.90;;;;;;6213266;23;19997;-81
2021/06/15 04:26:26;;;;;;;10.27;6.20;;;17.20;99.90;;;;;;6212197;23;20033;-81
2021/06/15 04:28:52;;;;;;;10.05;5.03;;;17.10;99.90;;;;;;6213497;23;20331;-81
2021/06/15 04:31:22;;;;;;;7.50;5.05;;;17.10;99.90;;;;;;6214051;23;20330;-81
2021/06/15 04:33:50;;;;;;;7.07;4.45;;;17.10;99.90;;;;;;6214276;23;20005;-81
2021/06/15 04:36:18;;;;;;;12.50;5.80;;;17.10;99.90;;;;;;6213275;23;19997;-81
2021/06/15 04:38:54;;;;;;;8.90;6.72;;;17.10;99.90;;;;;;6213093;23;20003;-81
2021/06/15 04:41:25;;;;;;;11.25;6.70;;;17.20;99.90;;;;;;6214157;23;20071;-81
2021/06/15 04:43:55;;;;;;;6.18;5.28;;;17.40;99.90;;;;;;6213906;23;20092;-81
2021/06/15 04:46:29;;;;;;;;;;;17.50;99.90;;;;;;6214548;23;20454;-81
2021/06/15 04:49:07;;;;;;;5.82;5.18;;;17.70;99.90;;;;;;6213175;23;19946;-81
2021/06/15 04:51:34;;;;;;;7.57;5.25;;;17.60;99.90;;;;;;6206374;23;263792;-81
2021/06/15 04:54:03;;;;;;;7.10;5.63;;;17.60;99.90;;;;;;6234073;23;20000;-81
2021/06/15 04:56:29;;;;;;;6.60;6.00;;;17.60;99.90;;;;;;6213369;23;20443;-81
2021/06/15 04:58:59;;;;;;;9.80;5.88;;;17.40;99.90;;;;;;6215494;23;20001;-81
2021/06/15 05:01:26;;;;;;;10.15;5.88;;;17.30;99.90;;;;;;6215110;23;20016;-81
2021/06/15 05:03:53;;;;;;;6.97;5.68;;;17.30;99.90;;;;;;6214957;23;20047;-81
2021/06/15 05:06:20;;;;;;;9.82;5.68;;;17.20;99.90;;;;;;6215136;23;20020;-81
2021/06/15 05:08:51;;;;;;;7.72;6.05;;;17.30;99.90;;;;;;6214888;23;20066;-81
2021/06/15 05:11:18;;;;;;;10.43;6.05;;;17.50;99.90;;;;;;6214246;23;20016;-81
2021/06/15 05:13:45;;;;;;;7.25;5.25;;;17.70;99.90;;;;;;6215707;23;20332;-81
2021/06/15 05:16:12;;;;;;;8.75;6.70;;;17.80;99.90;;;;;;6214337;23;19996;-81
2021/06/15 05:18:38;;;;;;;9.82;6.85;;;17.80;99.90;;;;;;6215090;23;20004;-81
2021/06/15 05:21:13;;;;;;;6.60;6.00;;;17.80;99.90;;;;;;6215135;23;19996;-81
2021/06/15 05:23:58;;;;;;;7.80;6.38;;;17.80;99.90;;;;;;6214479;23;20434;-81
2021/06/15 05:26:24;;;;;;;7.20;5.72;;;17.80;99.90;;;;;;6213640;23;20011;-81
2021/06/15 05:28:51;;;;;;;8.85;6.63;;;17.90;99.90;;;;;;6214744;23;19997;-81
2021/06/15 05:31:17;;;;;;;7.78;7.13;;;18.00;99.90;;;;;;6214805;23;20071;-81
2021/06/15 05:33:42;;;;;;;8.57;6.32;;;18.20;99.90;;;;;;6214540;23;20020;-81
2021/06/15 05:36:08;;;;;;;10.60;6.85;;;18.30;99.90;;;;;;6214345;23;19993;-81
2021/06/15 05:38:36;;;;;;;6.20;5.63;;;18.40;99.90;;;;;;6214841;23;19997;-81
2021/06/15 05:41:02;;;;;;;7.60;6.85;;;18.50;99.90;;;;;;6214738;23;19996;-81
2021/06/15 05:43:27;;;;;;;6.50;5.78;;;18.50;99.90;;;;;;6214668;23;20019;-81
2021/06/15 05:45:53;;;;;;;7.95;6.13;;;18.60;99.90;;;;;;6211805;23;20005;-81
2021/06/15 05:48:19;;;;;;;8.95;6.65;;;18.60;99.90;;;;;;6213631;23;20004;-81
2021/06/15 05:50:46;;;;;;;9.05;6.10;;;18.40;99.90;;;;;;6213267;23;20000;-81
2021/06/15 05:53:12;;;;;;;22.58;7.05;;;18.30;99.90;;;;;;6214403;23;20008;-81
2021/06/15 05:55:38;;;;;;;11.68;6.20;;;18.50;99.90;;;;;;6212515;23;20070;-81
2021/06/15 05:58:04;;;;;;;7.10;6.40;;;18.70;99.90;;;;;;6213167;23;20003;-82
2021/06/15 06:00:30;;;;;;;8.52;6.43;;;18.90;99.90;;;;;;6214046;23;20004;-82
2021/06/15 06:02:56;;;;;;;9.90;6.53;;;19.00;99.90;;;;;;6214939;23;20031;-81
2021/06/15 06:08:07;;;;;;;8.05;6.55;;;19.00;99.90;;;;;;6215101;23;20000;-82
2021/06/15 06:10:36;;;;;;;7.22;6.53;;;19.00;99.90;;;;;;6215205;23;19997;-82
2021/06/15 06:13:05;;;;;;;7.00;6.40;;;19.20;99.90;;;;;;6215101;23;20446;-82
2021/06/15 06:15:31;;;;;;;8.15;6.88;;;19.30;99.90;;;;;;6212885;23;19997;-82
2021/06/15 06:18:06;;;;;;;7.13;6.43;;;19.40;99.90;;;;;;6214668;23;20331;-82
2021/06/15 06:20:32;;;;;;;7.18;6.47;;;19.30;99.90;;;;;;6213981;23;20003;-82
2021/06/15 06:22:59;;;;;;;9.55;7.15;;;19.50;99.90;;;;;;6213143;23;20090;-82
2021/06/15 06:25:27;;;;;;;8.93;7.35;;;19.60;99.90;;;;;;6213349;23;19996;-82
2021/06/15 06:27:53;;;;;;;10.27;6.63;;;19.70;99.90;;;;;;6213078;23;20081;-82
2021/06/15 06:30:20;;;;;;;9.25;6.78;;;19.80;99.90;;;;;;6212605;23;20075;-82
2021/06/15 06:32:47;;;;;;;11.23;7.32;;;19.80;99.90;;;;;;6211566;23;20378;-82
2021/06/15 06:35:13;;;;;;;7.47;6.43;;;20.00;99.90;;;;;;6212416;23;19996;-82
2021/06/15 06:37:41;;;;;;;9.55;6.55;;;20.10;99.90;;;;;;6212994;23;20082;-82
2021/06/15 06:40:08;;;;;;;9.25;6.25;;;20.30;99.90;;;;;;6214207;23;20000;-82
2021/06/15 06:42:33;;;;;;;7.75;6.80;;;20.40;99.90;;;;;;6214652;23;20076;-82
2021/06/15 06:44:59;;;;;;;11.57;7.80;;;20.50;99.90;;;;;;6214374;23;20107;-82
2021/06/15 06:47:25;;;;;;;7.38;6.70;;;20.60;99.90;;;;;;6213722;23;20000;-82
2021/06/15 06:49:51;;;;;;;7.60;6.95;;;20.70;99.90;;;;;;6212965;23;20028;-82
2021/06/15 06:52:17;;;;;;;7.78;7.07;;;20.70;99.90;;;;;;6210038;23;20042;-81
2021/06/15 06:54:42;;;;;;;28.83;7.93;;;20.80;99.90;;;;;;6212791;23;19996;-82
2021/06/15 06:59:44;;;;;;;8.10;7.18;;;21.10;99.90;;;;;;6263003;22;20031;-82
2021/06/15 07:02:10;;;;;;;8.77;6.78;;;21.20;99.90;;;;;;6247041;22;20000;-82
2021/06/15 07:04:36;;;;;;;7.50;6.72;;;21.30;99.90;;;;;;6210908;23;20017;-82
2021/06/15 07:07:03;;;;;;;9.48;7.45;;;21.40;99.90;;;;;;6207073;23;20031;-82
2021/06/15 07:09:29;;;;;;;18.48;8.02;;;21.50;99.90;;;;;;6230166;22;20040;-82
2021/06/15 07:11:55;;;;;;;26.90;7.95;;;21.60;99.90;;;;;;6241040;23;20001;-82
2021/06/15 07:14:21;;;;;;;10.23;7.32;;;21.70;99.90;;;;;;6245028;23;19992;-82
2021/06/15 07:16:47;;;;;;;7.82;6.72;;;21.70;99.90;;;;;;6244338;23;20439;-82
2021/06/15 07:19:12;;;;;;;7.43;6.72;;;21.70;99.90;;;;;;6242955;23;20028;-82
2021/06/15 07:21:38;;;;;;;9.35;7.20;;;21.80;99.90;;;;;;6243215;23;19996;-82
2021/06/15 07:24:05;;;;;;;8.05;6.63;;;21.90;99.90;;;;;;6243537;23;20075;-82
2021/06/15 07:26:30;;;;;;;7.82;7.05;;;22.10;99.90;;;;;;6243263;23;20031;-82
2021/06/15 07:28:58;;;;;;;6.80;6.15;;;22.20;99.90;;;;;;6241256;23;20015;-82
2021/06/15 07:31:24;;;;;;;8.13;6.53;;;22.30;99.90;;;;;;6243652;23;20003;-82
2021/06/15 07:33:50;;;;;;;8.88;6.55;;;22.30;99.90;;;;;;6237499;23;20050;-82
2021/06/15 07:36:16;;;;;;;7.35;6.65;;;22.50;99.90;;;;;;6240765;23;20004;-82
2021/06/15 07:38:42;;;;;;;9.85;7.20;;;22.80;99.90;;;;;;6240546;23;19999;-81
2021/06/15 07:41:08;;;;;;;9.05;6.63;;;22.90;99.90;;;;;;6239610;23;19997;-82
2021/06/15 07:43:37;;;;;;;10.15;7.63;;;23.00;99.90;;;;;;6240316;23;20000;-82
2021/06/15 07:46:03;;;;;;;7.10;6.40;;;23.10;99.90;;;;;;6239993;23;20019;-83
2021/06/15 07:48:28;;;;;;;8.48;6.68;;;23.30;99.90;;;;;;6239390;23;19996;-83
2021/06/15 07:50:54;;;;;;;7.90;6.72;;;23.50;99.90;;;;;;6241090;23;20004;-82
2021/06/15 07:53:22;;;;;;;7.53;6.88;;;23.50;99.90;;;;;;6238261;23;20438;-83
2021/06/15 07:55:48;;;;;;;12.50;7.18;;;23.60;99.90;;;;;;6212649;23;20014;-83
2021/06/15 07:58:14;;;;;;;10.02;6.70;;;23.70;99.90;;;;;;6242847;23;20032;-83
2021/06/15 08:00:40;;;;;;;8.57;6.28;;;23.80;99.90;;;;;;6244306;23;20438;-83
2021/06/15 08:03:06;;;;;;;9.77;6.95;;;23.90;99.90;;;;;;6244734;23;20008;-83
2021/06/15 08:05:32;;;;;;;7.10;6.30;;;24.10;99.90;;;;;;6244556;23;20075;-83
2021/06/15 08:07:58;;;;;;;6.70;6.00;;;24.30;99.90;;;;;;6243690;23;20367;-83
2021/06/15 08:10:25;;;;;;;7.18;6.15;;;24.30;99.90;;;;;;6244567;23;20004;-82
2021/06/15 08:12:53;;;;;;;7.13;5.65;;;24.40;99.90;;;;;;6244035;23;19992;-83
2021/06/15 08:15:20;;;;;;;7.20;6.50;;;24.60;99.90;;;;;;6243345;23;20020;-83
2021/06/15 08:17:47;;;;;;;10.90;6.30;;;24.80;99.90;;;;;;6243791;23;20004;-83
2021/06/15 08:20:18;;;;;;;7.20;5.05;;;24.90;99.90;;;;;;6245245;23;20031;-83
2021/06/15 08:22:45;;;;;;;7.35;6.03;;;24.80;99.90;;;;;;6245755;23;20003;-83
2021/06/15 08:25:13;;;;;;;5.95;5.45;;;24.80;99.90;;;;;;6246184;23;20000;-83
2021/06/15 08:27:40;;;;;;;7.38;6.20;;;24.80;99.90;;;;;;6243653;23;20023;-82
2021/06/15 08:30:08;;;;;;;8.20;6.28;;;24.80;99.90;;;;;;6243063;23;20031;-82
2021/06/15 08:32:39;;;;;;;9.13;5.40;;;24.90;99.90;;;;;;6243482;23;20444;-82
2021/06/15 08:35:05;;;;;;;;;;;25.00;99.90;;;;;;6244788;23;20034;-82
2021/06/15 08:37:31;;;;;;;7.00;5.75;;;25.30;99.90;;;;;;6243063;23;19900;-82
2021/06/15 08:39:57;;;;;;;6.90;6.25;;;25.40;99.90;;;;;;6242688;23;20465;-82
2021/06/15 08:42:23;;;;;;;6.03;5.50;;;25.60;99.90;;;;;;6243287;23;20000;-82
2021/06/15 08:44:49;;;;;;;8.10;5.55;;;25.60;99.90;;;;;;6243204;23;20476;-82
2021/06/15 08:47:16;;;;;;;9.50;5.53;;;25.80;99.90;;;;;;6216881;23;20000;-82
2021/06/15 08:49:46;;;;;;;5.90;5.40;;;25.90;99.90;;;;;;6217345;23;20032;-82
2021/06/15 08:52:13;;;;;;;6.80;5.30;;;26.00;99.90;;;;;;6242887;23;19999;-82
2021/06/15 08:54:39;;;;;;;5.75;5.22;;;26.30;99.90;;;;;;6243257;23;19996;-82
2021/06/15 08:57:07;;;;;;;8.02;5.13;;;26.50;99.90;;;;;;6216989;23;20328;-82
2021/06/15 08:59:33;;;;;;;6.00;5.50;;;26.70;99.90;;;;;;6244602;23;20000;-82
2021/06/15 09:02:05;;;;;;;6.15;5.55;;;26.60;99.90;;;;;;6216264;23;20397;-82
2021/06/15 09:04:32;;;;;;;9.35;5.78;;;26.70;99.90;;;;;;6244991;23;20000;-82
2021/06/15 09:06:58;;;;;;;6.30;4.80;;;26.70;99.90;;;;;;6245366;23;20000;-82
2021/06/15 09:09:44;;;;;;;9.80;6.20;;;26.90;99.90;;;;;;6245464;23;20072;-82
2021/06/15 09:12:11;;;;;;;7.40;6.10;;;26.90;99.90;;;;;;6237690;23;20004;-82
2021/06/15 09:14:46;;;;;;;5.50;4.97;;;26.90;99.90;;;;;;6242801;23;20074;-82
2021/06/15 09:17:28;;;;;;;5.78;5.22;;;27.00;99.90;;;;;;6244301;23;19996;-82
2021/06/15 09:20:21;;;;;;;6.07;5.55;;;27.00;99.90;;;;;;6242280;23;20000;-82
2021/06/15 09:23:11;;;;;;;7.35;5.82;;;27.40;99.90;;;;;;6242856;23;20359;-83
2021/06/15 09:25:37;;;;;;;;;;;27.60;99.90;;;;;;6243882;23;20008;-82
2021/06/15 09:28:20;;;;;;;6.65;5.18;;;27.90;99.90;;;;;;6243392;23;19900;-82
2021/06/15 09:30:57;;;;;;;7.22;4.88;;;28.10;99.90;;;;;;6243457;23;20079;-82
2021/06/15 09:33:39;;;;;;;4.43;4.03;;;28.60;99.90;;;;;;6216282;23;20032;-82
2021/06/15 09:36:14;;;;;;;5.50;4.45;;;28.70;99.90;;;;;;6243813;23;20007;-82
2021/06/15 09:38:56;;;;;;;6.70;5.10;;;28.90;99.90;;;;;;6243578;23;20342;-82
2021/06/15 09:41:37;;;;;;;10.07;4.13;;;29.20;99.90;;;;;;6244090;23;19999;-82
2021/06/15 09:44:32;;;;;;;7.95;4.70;;;29.50;99.90;;;;;;6242434;23;20071;-82
2021/06/15 09:47:04;;;;;;;4.95;3.83;;;29.50;99.90;;;;;;6217752;23;20000;-82
2021/06/15 09:49:30;;;;;;;6.00;3.75;;;29.60;99.90;;;;;;6244102;23;20000;-83
2021/06/15 09:52:26;;;;;;;4.35;3.95;;;29.90;99.90;;;;;;6243072;23;20311;-82
2021/06/15 09:54:59;;;;;;;4.35;3.95;;;29.80;99.90;;;;;;6243389;23;19993;-82
2021/06/15 09:57:28;;;;;;;4.97;4.00;;;29.90;99.90;;;;;;6242140;23;20011;-82
2021/06/15 10:00:20;;;;;;;5.38;4.22;;;29.80;99.90;;;;;;6216272;23;20000;-82
2021/06/15 10:02:50;;;;;;;3.85;3.55;;;30.30;99.90;;;;;;6243558;23;20000;-82
2021/06/15 10:05:36;;;;;;;4.20;3.90;;;30.60;99.90;;;;;;6216587;23;20011;-82
2021/06/15 10:08:08;;;;;;;9.65;3.63;;;30.70;98.70;;;;;;6242839;23;20020;-82
2021/06/15 10:10:43;;;;;;;4.22;3.83;;;30.70;99.70;;;;;;6242053;23;20011;-82
2021/06/15 10:13:11;;;;;;;3.78;3.33;;;31.10;99.10;;;;;;6242527;23;20450;-82
2021/06/15 10:15:41;;;;;;;5.43;3.90;;;30.90;95.90;;;;;;6243558;23;20000;-83
2021/06/15 10:18:07;;;;;;;;;;;31.10;96.10;;;;;;6243882;23;20040;-82
2021/06/15 10:20:37;;;;;;;8.90;3.60;;;31.30;96.20;;;;;;6242870;23;19954;-83
2021/06/15 10:23:06;;;;;;;3.72;3.42;;;31.70;97.70;;;;;;6242897;23;20000;-82
2021/06/15 10:25:33;;;;;;;8.57;4.17;;;33.00;95.60;;;;;;6243355;23;20000;-83
2021/06/15 10:28:08;;;;;;;4.53;4.13;;;36.40;85.30;;;;;;6215991;23;20111;-83
2021/06/15 10:30:35;;;;;;;3.83;3.45;;;38.50;78.70;;;;;;6216249;23;20030;-82
2021/06/15 10:33:23;;;;;;;7.55;3.97;;;39.50;67.80;;;;;;6243642;23;19998;-82
2021/06/15 10:35:54;;;;;;;5.20;4.00;;;40.40;62.40;;;;;;6244030;23;20000;-83
2021/06/15 10:38:40;;;;;;;4.18;3.83;;;41.30;62.00;;;;;;6214970;23;20003;-83
2021/06/15 10:41:07;;;;;;;3.47;3.28;;;42.00;62.00;;;;;;6242143;23;20004;-83
2021/06/15 10:43:36;;;;;;;4.13;3.83;;;41.70;55.50;;;;;;6242746;23;20486;-83
2021/06/15 10:46:11;;;;;;;4.00;3.75;;;41.90;57.30;;;;;;6243226;23;20517;-83
2021/06/15 10:48:41;;;;;;;4.15;3.83;;;42.60;56.50;;;;;;6241907;23;20000;-83
2021/06/15 10:51:25;;;;;;;;;;;42.90;53.20;;;;;;6243881;23;20006;-83
2021/06/15 10:53:52;;;;;;;4.63;4.07;;;43.60;54.80;;;;;;6241714;23;19921;-83
2021/06/15 10:56:22;;;;;;;3.72;3.42;;;43.90;52.20;;;;;;6241841;23;20023;-83
2021/06/15 10:59:04;;;;;;;4.03;3.75;;;44.10;52.90;;;;;;6243513;23;20450;-83
2021/06/15 11:01:32;;;;;;;7.18;3.72;;;42.10;50.80;;;;;;6243057;23;20039;-83
2021/06/15 11:04:01;;;;;;;4.65;3.60;;;43.10;54.90;;;;;;6242490;23;20350;-83
2021/06/15 11:06:27;;;;;;;3.88;3.47;;;44.30;51.00;;;;;;6242005;23;20331;-83
2021/06/15 11:09:17;;;;;;;4.53;3.60;;;44.20;49.80;;;;;;6243546;23;20003;-84
2021/06/15 11:11:47;;;;;;;3.70;3.40;;;44.60;51.20;;;;;;6244653;23;20008;-83
2021/06/15 11:14:18;;;;;;;3.80;3.50;;;45.10;49.00;;;;;;6244924;23;20372;-83
2021/06/15 11:16:47;;;;;;;3.85;3.65;;;44.40;47.90;;;;;;6217810;23;20024;-83
2021/06/15 11:19:14;;;;;;;4.35;3.80;;;45.00;49.60;;;;;;6219141;23;20004;-84
2021/06/15 11:21:52;;;;;;;3.83;3.63;;;44.90;47.50;;;;;;6241917;23;20003;-84
2021/06/15 11:24:21;;;;;;;5.15;4.00;;;44.30;47.60;;;;;;6217806;23;20342;-84
2021/06/15 11:26:49;;;;;;;4.30;4.00;;;45.20;47.80;;;;;;6243863;23;19996;-85
2021/06/15 11:29:37;;;;;;;4.32;3.97;;;45.90;47.10;;;;;;6245654;23;20446;-85
2021/06/15 11:32:18;;;;;;;4.82;4.40;;;46.00;46.70;;;;;;6226192;23;19997;-84
2021/06/15 11:34:53;;;;;;;5.88;4.22;;;45.90;45.00;;;;;;6246382;23;20071;-84
2021/06/15 11:37:21;;;;;;;4.95;4.18;;;44.70;47.00;;;;;;6246291;23;20380;-84
2021/06/15 11:39:47;;;;;;;4.82;4.20;;;44.40;47.10;;;;;;6245908;23;20034;-83
2021/06/15 11:42:26;;;;;;;6.25;3.75;;;44.50;46.30;;;;;;6245994;23;20004;-83
2021/06/15 11:45:08;;;;;;;6.47;3.38;;;39.80;51.10;;;;;;6246318;23;20045;-84
2021/06/15 11:47:47;;;;;;;3.80;3.47;;;37.50;55.20;;;;;;6246240;23;20004;-84
2021/06/15 11:50:29;;;;;;;3.80;3.58;;;35.50;55.50;;;;;;6245650;23;19996;-84
2021/06/15 11:52:55;;;;;;;8.77;3.50;;;34.20;59.20;;;;;;6240697;23;20000;-84
2021/06/15 11:55:29;;;;;;;3.58;3.28;;;33.00;63.40;;;;;;6217807;23;20001;-80
2021/06/15 11:58:02;;;;;;;4.53;3.50;;;32.40;64.80;;;;;;6245026;23;20067;-79
2021/06/15 12:00:29;;;;;;;5.15;4.20;;;31.80;68.10;;;;;;6243432;23;19996;-80
2021/06/15 12:03:09;;;;;;;1999.90;229.52;;;31.50;71.40;;;;;;6244483;23;20058;-80
2021/06/15 12:05:36;;;;;;;127.45;15.73;;;31.00;71.20;;;;;;6244014;23;20006;-80
2021/06/15 12:08:03;;;;;;;91.68;15.50;;;30.90;70.80;;;;;;6244663;23;20050;-80
2021/06/15 12:10:29;;;;;;;53.08;10.30;;;30.60;74.90;;;;;;6244345;23;20488;-80
2021/06/15 12:12:58;;;;;;;21.00;5.13;;;30.00;77.00;;;;;;6244716;23;19997;-79
2021/06/15 12:15:37;;;;;;;6.88;3.75;;;29.80;83.80;;;;;;6244770;23;19996;-79
2021/06/15 12:18:04;;;;;;;5.57;3.30;;;29.10;89.40;;;;;;6217698;23;20000;-79
2021/06/15 12:20:33;;;;;;;20.27;5.90;;;28.60;92.50;;;;;;6218041;23;20001;-79
2021/06/15 12:23:21;;;;;;;3.65;3.30;;;28.70;93.20;;;;;;6216527;23;20011;-79
2021/06/15 12:25:46;;;;;;;4.05;3.53;;;28.70;94.30;;;;;;6097579;23;20006;-79
2021/06/15 12:28:15;;;;;;;21.27;4.57;;;28.40;97.40;;;;;;6122100;23;20069;-80
2021/06/15 12:30:41;;;;;;;12.18;4.65;;;28.10;98.70;;;;;;6121154;23;20041;-80
2021/06/15 12:33:09;;;;;;;3.70;3.40;;;28.10;98.30;;;;;;6122899;23;20412;-79
2021/06/15 12:35:36;;;;;;;7.32;3.92;;;27.50;99.90;;;;;;6121654;23;20009;-79
2021/06/15 12:38:29;;;;;;;4.80;3.53;;;27.10;99.90;;;;;;6122298;23;20009;-79
2021/06/15 12:40:55;;;;;;;4.07;3.70;;;27.00;99.90;;;;;;6117968;23;20003;-79
2021/06/15 12:43:25;;;;;;;3.95;3.63;;;27.20;99.90;;;;;;6122346;23;20032;-79
2021/06/15 12:46:08;;;;;;;5.72;3.50;;;27.00;99.90;;;;;;6122271;23;20002;-80
2021/06/15 12:48:43;;;;;;;6.15;3.55;;;26.90;99.90;;;;;;6121823;23;20002;-79
2021/06/15 12:51:15;;;;;;;4.88;4.38;;;27.00;99.90;;;;;;6122000;23;20058;-79
2021/06/15 12:53:42;;;;;;;4.55;3.88;;;27.30;99.90;;;;;;6121894;23;20002;-79
2021/06/15 12:56:38;;;;;;;5.28;3.70;;;27.40;99.90;;;;;;6122279;23;19998;-79
2021/06/15 12:59:16;;;;;;;4.50;3.80;;;27.60;99.90;;;;;;6109915;23;19998;-79
2021/06/15 13:01:42;;;;;;;3.65;3.25;;;27.80;99.90;;;;;;6098597;23;19998;-79
2021/06/15 13:04:58;;;;;;;5.97;3.30;;;28.10;99.90;;;;;;6243003;23;20019;-79
2021/06/15 13:07:30;;;;;;;3.88;3.58;;;28.20;99.90;;;;;;6120773;23;20053;-79